sensor_id;sensor_type;location;lat;lon;timestamp;temperature;humidity
3630;DHT22;1831;53.626;10.012;2022-08-19T00:01:52;27.20;64.20
3630;DHT22;1831;53.626;10.012;2022-08-19T00:04:22;27.20;64.30
3630;DHT22;1831;53.626;10.012;2022-08-19T00:06:50;27.20;64.30
3630;DHT22;1831;53.626;10.012;2022-08-19T00:09:20;27.20;64.50
3630;DHT22;1831;53.626;10.012;2022-08-19T00:11:48;27.20;64.50
3630;DHT22;1831;53.626;10.012;2022-08-19T00:14:18;27.20;64.50
3630;DHT22;1831;53.626;10.012;2022-08-19T00:16:46;27.20;64.60
3630;DHT22;1831;53.626;10.012;2022-08-19T00:19:14;27.20;64.50
3630;DHT22;1831;53.626;10.012;2022-08-19T00:21:42;27.20;64.60
3630;DHT22;1831;53.626;10.012;2022-08-19T00:24:10;27.10;65.10
3630;DHT22;1831;53.626;10.012;2022-08-19T00:26:39;27.10;64.80
3630;DHT22;1831;53.626;10.012;2022-08-19T00:29:07;27.10;64.80
3630;DHT22;1831;53.626;10.012;2022-08-19T00:31:34;27.10;65.00
3630;DHT22;1831;53.626;10.012;2022-08-19T00:34:01;27.00;65.00
3630;DHT22;1831;53.626;10.012;2022-08-19T00:36:29;27.00;65.10
3630;DHT22;1831;53.626;10.012;2022-08-19T00:38:58;26.90;65.20
3630;DHT22;1831;53.626;10.012;2022-08-19T00:41:26;26.90;65.60
3630;DHT22;1831;53.626;10.012;2022-08-19T00:44:03;26.90;65.50
3630;DHT22;1831;53.626;10.012;2022-08-19T00:46:30;26.80;65.60
3630;DHT22;1831;53.626;10.012;2022-08-19T00:48:59;26.90;65.50
3630;DHT22;1831;53.626;10.012;2022-08-19T00:51:27;26.80;65.60
3630;DHT22;1831;53.626;10.012;2022-08-19T00:53:58;26.70;65.90
3630;DHT22;1831;53.626;10.012;2022-08-19T00:56:26;26.80;65.90
3630;DHT22;1831;53.626;10.012;2022-08-19T00:58:55;26.80;65.80
3630;DHT22;1831;53.626;10.012;2022-08-19T01:01:24;26.80;65.80
3630;DHT22;1831;53.626;10.012;2022-08-19T01:03:51;26.90;65.90
3630;DHT22;1831;53.626;10.012;2022-08-19T01:06:18;26.90;65.60
3630;DHT22;1831;53.626;10.012;2022-08-19T01:08:45;26.90;65.70
3630;DHT22;1831;53.626;10.012;2022-08-19T01:11:12;26.80;65.60
3630;DHT22;1831;53.626;10.012;2022-08-19T01:13:39;26.90;66.50
3630;DHT22;1831;53.626;10.012;2022-08-19T01:16:11;26.80;65.80
3630;DHT22;1831;53.626;10.012;2022-08-19T01:18:42;26.80;65.90
3630;DHT22;1831;53.626;10.012;2022-08-19T01:21:12;26.70;66.10
3630;DHT22;1831;53.626;10.012;2022-08-19T01:23:43;26.80;66.00
3630;DHT22;1831;53.626;10.012;2022-08-19T01:28:40;26.80;66.00
3630;DHT22;1831;53.626;10.012;2022-08-19T01:31:08;26.80;66.10
3630;DHT22;1831;53.626;10.012;2022-08-19T01:33:37;26.80;66.20
3630;DHT22;1831;53.626;10.012;2022-08-19T01:36:06;26.80;66.20
3630;DHT22;1831;53.626;10.012;2022-08-19T01:38:36;26.80;66.30
3630;DHT22;1831;53.626;10.012;2022-08-19T01:41:05;26.90;66.10
3630;DHT22;1831;53.626;10.012;2022-08-19T01:43:32;26.90;66.80
3630;DHT22;1831;53.626;10.012;2022-08-19T01:45:59;26.90;66.30
3630;DHT22;1831;53.626;10.012;2022-08-19T01:48:33;26.70;67.00
3630;DHT22;1831;53.626;10.012;2022-08-19T01:51:00;26.70;67.10
3630;DHT22;1831;53.626;10.012;2022-08-19T01:53:27;26.50;67.50
3630;DHT22;1831;53.626;10.012;2022-08-19T01:55:53;26.40;68.00
3630;DHT22;1831;53.626;10.012;2022-08-19T01:58:25;26.40;68.10
3630;DHT22;1831;53.626;10.012;2022-08-19T02:00:54;26.40;68.20
3630;DHT22;1831;53.626;10.012;2022-08-19T02:03:21;26.20;68.70
3630;DHT22;1831;53.626;10.012;2022-08-19T02:05:55;26.20;69.00
3630;DHT22;1831;53.626;10.012;2022-08-19T02:08:23;26.20;69.00
3630;DHT22;1831;53.626;10.012;2022-08-19T02:10:50;26.30;68.70
3630;DHT22;1831;53.626;10.012;2022-08-19T02:13:17;26.30;68.60
3630;DHT22;1831;53.626;10.012;2022-08-19T02:15:45;26.40;69.20
3630;DHT22;1831;53.626;10.012;2022-08-19T02:18:12;26.40;68.50
3630;DHT22;1831;53.626;10.012;2022-08-19T02:20:40;26.40;68.50
3630;DHT22;1831;53.626;10.012;2022-08-19T02:23:07;26.40;68.20
3630;DHT22;1831;53.626;10.012;2022-08-19T02:25:34;26.50;68.10
3630;DHT22;1831;53.626;10.012;2022-08-19T02:28:02;26.50;68.00
3630;DHT22;1831;53.626;10.012;2022-08-19T02:30:29;26.40;68.10
3630;DHT22;1831;53.626;10.012;2022-08-19T02:32:58;26.50;68.20
3630;DHT22;1831;53.626;10.012;2022-08-19T02:35:25;26.40;68.20
3630;DHT22;1831;53.626;10.012;2022-08-19T02:37:52;26.40;68.40
3630;DHT22;1831;53.626;10.012;2022-08-19T02:40:37;26.40;68.60
3630;DHT22;1831;53.626;10.012;2022-08-19T02:43:06;26.40;68.70
3630;DHT22;1831;53.626;10.012;2022-08-19T02:45:36;26.30;68.80
3630;DHT22;1831;53.626;10.012;2022-08-19T02:48:05;26.10;69.40
3630;DHT22;1831;53.626;10.012;2022-08-19T02:50:32;26.10;69.80
3630;DHT22;1831;53.626;10.012;2022-08-19T02:52:59;25.90;70.20
3630;DHT22;1831;53.626;10.012;2022-08-19T02:55:26;26.00;70.10
3630;DHT22;1831;53.626;10.012;2022-08-19T02:57:53;26.00;70.00
3630;DHT22;1831;53.626;10.012;2022-08-19T03:00:20;26.00;70.70
3630;DHT22;1831;53.626;10.012;2022-08-19T03:02:47;26.00;70.00
3630;DHT22;1831;53.626;10.012;2022-08-19T03:05:15;26.10;69.70
3630;DHT22;1831;53.626;10.012;2022-08-19T03:07:42;26.10;69.60
3630;DHT22;1831;53.626;10.012;2022-08-19T03:10:09;26.10;69.80
3630;DHT22;1831;53.626;10.012;2022-08-19T03:12:37;26.10;69.70
3630;DHT22;1831;53.626;10.012;2022-08-19T03:15:06;26.10;69.40
3630;DHT22;1831;53.626;10.012;2022-08-19T03:17:33;26.20;69.30
3630;DHT22;1831;53.626;10.012;2022-08-19T03:20:01;26.20;69.20
3630;DHT22;1831;53.626;10.012;2022-08-19T03:22:29;26.20;69.20
3630;DHT22;1831;53.626;10.012;2022-08-19T03:24:56;26.20;69.10
3630;DHT22;1831;53.626;10.012;2022-08-19T03:27:24;26.30;69.00
3630;DHT22;1831;53.626;10.012;2022-08-19T03:29:51;26.30;69.10
3630;DHT22;1831;53.626;10.012;2022-08-19T03:32:18;26.20;69.00
3630;DHT22;1831;53.626;10.012;2022-08-19T03:34:45;26.10;69.30
3630;DHT22;1831;53.626;10.012;2022-08-19T03:37:12;26.10;69.40
3630;DHT22;1831;53.626;10.012;2022-08-19T03:39:41;26.10;69.40
3630;DHT22;1831;53.626;10.012;2022-08-19T03:42:08;26.00;69.90
3630;DHT22;1831;53.626;10.012;2022-08-19T03:44:35;25.90;70.00
3630;DHT22;1831;53.626;10.012;2022-08-19T03:47:04;25.80;70.50
3630;DHT22;1831;53.626;10.012;2022-08-19T03:49:32;25.80;70.50
3630;DHT22;1831;53.626;10.012;2022-08-19T03:52:00;25.80;70.60
3630;DHT22;1831;53.626;10.012;2022-08-19T03:54:28;25.90;70.50
3630;DHT22;1831;53.626;10.012;2022-08-19T03:56:56;26.00;70.30
3630;DHT22;1831;53.626;10.012;2022-08-19T03:59:27;25.90;70.40
3630;DHT22;1831;53.626;10.012;2022-08-19T04:01:55;26.00;70.20
3630;DHT22;1831;53.626;10.012;2022-08-19T04:04:22;26.00;70.00
3630;DHT22;1831;53.626;10.012;2022-08-19T04:06:50;26.00;70.00
3630;DHT22;1831;53.626;10.012;2022-08-19T04:09:18;26.10;69.80
3630;DHT22;1831;53.626;10.012;2022-08-19T04:11:49;26.10;69.60
3630;DHT22;1831;53.626;10.012;2022-08-19T04:14:19;26.10;69.50
3630;DHT22;1831;53.626;10.012;2022-08-19T04:16:48;26.20;69.30
3630;DHT22;1831;53.626;10.012;2022-08-19T04:19:17;26.20;69.30
3630;DHT22;1831;53.626;10.012;2022-08-19T04:21:45;26.20;69.20
3630;DHT22;1831;53.626;10.012;2022-08-19T04:24:13;26.20;69.10
3630;DHT22;1831;53.626;10.012;2022-08-19T04:26:41;26.30;69.00
3630;DHT22;1831;53.626;10.012;2022-08-19T04:29:14;26.20;68.80
3630;DHT22;1831;53.626;10.012;2022-08-19T04:31:43;26.30;69.00
3630;DHT22;1831;53.626;10.012;2022-08-19T04:34:13;26.30;68.90
3630;DHT22;1831;53.626;10.012;2022-08-19T04:36:41;26.30;68.80
3630;DHT22;1831;53.626;10.012;2022-08-19T04:39:12;26.30;68.70
3630;DHT22;1831;53.626;10.012;2022-08-19T04:41:40;26.30;68.70
3630;DHT22;1831;53.626;10.012;2022-08-19T04:44:20;26.30;68.90
3630;DHT22;1831;53.626;10.012;2022-08-19T04:46:49;26.20;69.10
3630;DHT22;1831;53.626;10.012;2022-08-19T04:49:18;26.20;69.00
3630;DHT22;1831;53.626;10.012;2022-08-19T04:51:46;26.20;68.90
3630;DHT22;1831;53.626;10.012;2022-08-19T04:54:14;26.20;69.00
3630;DHT22;1831;53.626;10.012;2022-08-19T04:56:41;26.20;69.00
3630;DHT22;1831;53.626;10.012;2022-08-19T04:59:09;26.30;68.80
3630;DHT22;1831;53.626;10.012;2022-08-19T05:01:37;26.30;68.80
3630;DHT22;1831;53.626;10.012;2022-08-19T05:04:05;26.30;68.80
3630;DHT22;1831;53.626;10.012;2022-08-19T05:06:34;26.20;68.80
3630;DHT22;1831;53.626;10.012;2022-08-19T05:09:02;26.20;68.70
3630;DHT22;1831;53.626;10.012;2022-08-19T05:11:33;26.20;68.80
3630;DHT22;1831;53.626;10.012;2022-08-19T05:14:00;26.20;68.80
3630;DHT22;1831;53.626;10.012;2022-08-19T05:16:27;26.20;68.90
3630;DHT22;1831;53.626;10.012;2022-08-19T05:18:55;26.30;69.00
3630;DHT22;1831;53.626;10.012;2022-08-19T05:21:42;26.30;68.80
3630;DHT22;1831;53.626;10.012;2022-08-19T05:24:27;26.30;68.90
3630;DHT22;1831;53.626;10.012;2022-08-19T05:26:55;26.30;68.80
3630;DHT22;1831;53.626;10.012;2022-08-19T05:29:25;26.30;68.90
3630;DHT22;1831;53.626;10.012;2022-08-19T05:31:54;26.20;69.10
3630;DHT22;1831;53.626;10.012;2022-08-19T05:34:23;26.20;69.20
3630;DHT22;1831;53.626;10.012;2022-08-19T05:36:57;26.20;69.20
3630;DHT22;1831;53.626;10.012;2022-08-19T05:39:26;26.20;69.40
3630;DHT22;1831;53.626;10.012;2022-08-19T05:41:55;26.20;69.30
3630;DHT22;1831;53.626;10.012;2022-08-19T05:44:24;26.20;69.30
3630;DHT22;1831;53.626;10.012;2022-08-19T05:46:51;26.20;69.30
3630;DHT22;1831;53.626;10.012;2022-08-19T05:49:21;26.10;69.40
3630;DHT22;1831;53.626;10.012;2022-08-19T05:51:49;26.10;69.40
3630;DHT22;1831;53.626;10.012;2022-08-19T05:54:17;26.10;69.50
3630;DHT22;1831;53.626;10.012;2022-08-19T05:56:45;26.00;69.80
3630;DHT22;1831;53.626;10.012;2022-08-19T05:59:14;26.00;69.90
3630;DHT22;1831;53.626;10.012;2022-08-19T06:01:43;26.00;70.00
3630;DHT22;1831;53.626;10.012;2022-08-19T06:04:11;25.90;70.10
3630;DHT22;1831;53.626;10.012;2022-08-19T06:06:39;25.80;70.60
3630;DHT22;1831;53.626;10.012;2022-08-19T06:09:07;25.90;70.90
3630;DHT22;1831;53.626;10.012;2022-08-19T06:11:38;25.80;70.90
3630;DHT22;1831;53.626;10.012;2022-08-19T06:14:08;25.80;70.70
3630;DHT22;1831;53.626;10.012;2022-08-19T06:16:36;25.90;70.50
3630;DHT22;1831;53.626;10.012;2022-08-19T06:19:08;25.90;70.60
3630;DHT22;1831;53.626;10.012;2022-08-19T06:21:36;25.90;70.60
3630;DHT22;1831;53.626;10.012;2022-08-19T06:24:04;25.90;70.90
3630;DHT22;1831;53.626;10.012;2022-08-19T06:26:33;25.90;70.60
3630;DHT22;1831;53.626;10.012;2022-08-19T06:29:02;25.90;70.50
3630;DHT22;1831;53.626;10.012;2022-08-19T06:31:31;26.00;70.50
3630;DHT22;1831;53.626;10.012;2022-08-19T06:33:59;26.00;70.40
3630;DHT22;1831;53.626;10.012;2022-08-19T06:36:30;25.90;70.50
3630;DHT22;1831;53.626;10.012;2022-08-19T06:38:59;25.90;70.40
3630;DHT22;1831;53.626;10.012;2022-08-19T06:41:26;26.00;70.40
3630;DHT22;1831;53.626;10.012;2022-08-19T06:43:53;25.90;70.60
3630;DHT22;1831;53.626;10.012;2022-08-19T06:46:22;25.90;70.40
3630;DHT22;1831;53.626;10.012;2022-08-19T06:48:49;26.00;70.40
3630;DHT22;1831;53.626;10.012;2022-08-19T06:51:19;25.90;70.40
3630;DHT22;1831;53.626;10.012;2022-08-19T06:53:47;25.90;70.50
3630;DHT22;1831;53.626;10.012;2022-08-19T06:56:15;25.90;70.70
3630;DHT22;1831;53.626;10.012;2022-08-19T06:58:42;26.00;70.50
3630;DHT22;1831;53.626;10.012;2022-08-19T07:01:09;26.00;70.20
3630;DHT22;1831;53.626;10.012;2022-08-19T07:03:38;26.00;70.00
3630;DHT22;1831;53.626;10.012;2022-08-19T07:06:07;26.00;70.10
3630;DHT22;1831;53.626;10.012;2022-08-19T07:08:36;26.00;70.10
3630;DHT22;1831;53.626;10.012;2022-08-19T07:11:05;25.90;70.30
3630;DHT22;1831;53.626;10.012;2022-08-19T07:13:33;25.90;70.60
3630;DHT22;1831;53.626;10.012;2022-08-19T07:16:03;25.90;70.50
3630;DHT22;1831;53.626;10.012;2022-08-19T07:18:30;25.90;70.50
3630;DHT22;1831;53.626;10.012;2022-08-19T07:21:04;26.00;70.60
3630;DHT22;1831;53.626;10.012;2022-08-19T07:23:31;26.00;70.40
3630;DHT22;1831;53.626;10.012;2022-08-19T07:26:04;26.10;70.10
3630;DHT22;1831;53.626;10.012;2022-08-19T07:28:31;26.10;70.00
3630;DHT22;1831;53.626;10.012;2022-08-19T07:30:58;26.20;69.90
3630;DHT22;1831;53.626;10.012;2022-08-19T07:33:27;26.20;69.80
3630;DHT22;1831;53.626;10.012;2022-08-19T07:35:55;26.20;69.80
3630;DHT22;1831;53.626;10.012;2022-08-19T07:38:24;26.20;69.70
3630;DHT22;1831;53.626;10.012;2022-08-19T07:40:51;26.20;69.80
3630;DHT22;1831;53.626;10.012;2022-08-19T07:43:19;26.20;69.70
3630;DHT22;1831;53.626;10.012;2022-08-19T07:45:51;26.20;69.70
3630;DHT22;1831;53.626;10.012;2022-08-19T07:48:18;26.30;69.50
3630;DHT22;1831;53.626;10.012;2022-08-19T07:50:47;26.30;69.40
3630;DHT22;1831;53.626;10.012;2022-08-19T07:53:14;26.30;69.40
3630;DHT22;1831;53.626;10.012;2022-08-19T07:55:43;26.30;69.60
3630;DHT22;1831;53.626;10.012;2022-08-19T07:58:12;26.30;69.60
3630;DHT22;1831;53.626;10.012;2022-08-19T08:00:39;26.30;69.30
3630;DHT22;1831;53.626;10.012;2022-08-19T08:03:07;26.40;69.30
3630;DHT22;1831;53.626;10.012;2022-08-19T08:05:34;26.40;69.30
3630;DHT22;1831;53.626;10.012;2022-08-19T08:08:19;26.40;69.00
3630;DHT22;1831;53.626;10.012;2022-08-19T08:11:05;26.40;69.30
3630;DHT22;1831;53.626;10.012;2022-08-19T08:13:32;26.40;69.50
3630;DHT22;1831;53.626;10.012;2022-08-19T08:16:01;26.30;69.50
3630;DHT22;1831;53.626;10.012;2022-08-19T08:18:28;26.40;69.70
3630;DHT22;1831;53.626;10.012;2022-08-19T08:20:56;26.40;69.40
3630;DHT22;1831;53.626;10.012;2022-08-19T08:23:24;26.40;69.60
3630;DHT22;1831;53.626;10.012;2022-08-19T08:25:52;26.30;69.70
3630;DHT22;1831;53.626;10.012;2022-08-19T08:28:22;26.30;69.50
3630;DHT22;1831;53.626;10.012;2022-08-19T08:30:49;26.40;69.50
3630;DHT22;1831;53.626;10.012;2022-08-19T08:33:18;26.20;69.60
3630;DHT22;1831;53.626;10.012;2022-08-19T08:35:45;26.20;69.70
3630;DHT22;1831;53.626;10.012;2022-08-19T08:38:13;26.20;69.90
3630;DHT22;1831;53.626;10.012;2022-08-19T08:40:45;26.20;70.00
3630;DHT22;1831;53.626;10.012;2022-08-19T08:43:25;26.30;70.00
3630;DHT22;1831;53.626;10.012;2022-08-19T08:46:00;26.30;70.00
3630;DHT22;1831;53.626;10.012;2022-08-19T08:48:36;26.30;69.70
3630;DHT22;1831;53.626;10.012;2022-08-19T08:51:13;26.30;69.90
3630;DHT22;1831;53.626;10.012;2022-08-19T08:53:41;26.30;69.80
3630;DHT22;1831;53.626;10.012;2022-08-19T08:56:09;26.30;70.20
3630;DHT22;1831;53.626;10.012;2022-08-19T08:58:46;26.30;69.90
3630;DHT22;1831;53.626;10.012;2022-08-19T09:01:14;26.30;69.90
3630;DHT22;1831;53.626;10.012;2022-08-19T09:03:43;26.30;70.00
3630;DHT22;1831;53.626;10.012;2022-08-19T09:06:21;26.30;70.10
3630;DHT22;1831;53.626;10.012;2022-08-19T09:08:55;26.40;69.90
3630;DHT22;1831;53.626;10.012;2022-08-19T09:11:36;26.40;69.70
3630;DHT22;1831;53.626;10.012;2022-08-19T09:14:14;26.40;69.60
3630;DHT22;1831;53.626;10.012;2022-08-19T09:16:43;26.40;70.00
3630;DHT22;1831;53.626;10.012;2022-08-19T09:19:10;26.40;69.70
3630;DHT22;1831;53.626;10.012;2022-08-19T09:21:37;26.50;69.60
3630;DHT22;1831;53.626;10.012;2022-08-19T09:24:06;26.40;70.60
3630;DHT22;1831;53.626;10.012;2022-08-19T09:26:33;26.50;69.70
3630;DHT22;1831;53.626;10.012;2022-08-19T09:29:01;26.40;69.80
3630;DHT22;1831;53.626;10.012;2022-08-19T09:31:32;26.40;70.10
3630;DHT22;1831;53.626;10.012;2022-08-19T09:33:59;26.40;70.30
3630;DHT22;1831;53.626;10.012;2022-08-19T09:36:32;26.40;69.90
3630;DHT22;1831;53.626;10.012;2022-08-19T09:39:02;26.50;69.80
3630;DHT22;1831;53.626;10.012;2022-08-19T09:41:29;26.40;69.70
3630;DHT22;1831;53.626;10.012;2022-08-19T09:43:59;26.30;69.70
3630;DHT22;1831;53.626;10.012;2022-08-19T09:46:35;26.40;69.60
3630;DHT22;1831;53.626;10.012;2022-08-19T09:49:04;26.50;69.60
3630;DHT22;1831;53.626;10.012;2022-08-19T09:51:32;26.50;69.30
3630;DHT22;1831;53.626;10.012;2022-08-19T09:54:01;26.50;69.30
3630;DHT22;1831;53.626;10.012;2022-08-19T09:56:29;26.40;69.50
3630;DHT22;1831;53.626;10.012;2022-08-19T09:58:57;26.40;69.40
3630;DHT22;1831;53.626;10.012;2022-08-19T10:01:27;26.40;69.60
3630;DHT22;1831;53.626;10.012;2022-08-19T10:03:58;26.40;69.70
3630;DHT22;1831;53.626;10.012;2022-08-19T10:06:28;26.40;69.60
3630;DHT22;1831;53.626;10.012;2022-08-19T10:08:58;26.40;69.80
3630;DHT22;1831;53.626;10.012;2022-08-19T10:11:25;26.30;70.20
3630;DHT22;1831;53.626;10.012;2022-08-19T10:13:53;26.30;70.30
3630;DHT22;1831;53.626;10.012;2022-08-19T10:16:21;26.40;70.30
3630;DHT22;1831;53.626;10.012;2022-08-19T10:18:48;26.40;70.10
3630;DHT22;1831;53.626;10.012;2022-08-19T10:21:19;26.40;69.80
3630;DHT22;1831;53.626;10.012;2022-08-19T10:23:48;26.50;69.90
3630;DHT22;1831;53.626;10.012;2022-08-19T10:26:17;26.60;70.00
3630;DHT22;1831;53.626;10.012;2022-08-19T10:28:44;26.50;69.90
3630;DHT22;1831;53.626;10.012;2022-08-19T10:31:13;26.50;69.80
3630;DHT22;1831;53.626;10.012;2022-08-19T10:33:41;26.50;69.80
3630;DHT22;1831;53.626;10.012;2022-08-19T10:36:10;26.40;70.10
3630;DHT22;1831;53.626;10.012;2022-08-19T10:38:39;26.40;70.10
3630;DHT22;1831;53.626;10.012;2022-08-19T10:41:10;26.50;70.20
3630;DHT22;1831;53.626;10.012;2022-08-19T10:43:37;26.40;70.20
3630;DHT22;1831;53.626;10.012;2022-08-19T10:46:06;26.50;70.20
3630;DHT22;1831;53.626;10.012;2022-08-19T10:48:33;26.30;70.40
3630;DHT22;1831;53.626;10.012;2022-08-19T10:51:00;26.40;70.60
3630;DHT22;1831;53.626;10.012;2022-08-19T10:53:46;26.40;70.30
3630;DHT22;1831;53.626;10.012;2022-08-19T10:56:13;26.30;70.80
3630;DHT22;1831;53.626;10.012;2022-08-19T10:58:58;26.30;71.00
3630;DHT22;1831;53.626;10.012;2022-08-19T11:01:25;26.20;71.30
3630;DHT22;1831;53.626;10.012;2022-08-19T11:03:52;26.30;71.40
3630;DHT22;1831;53.626;10.012;2022-08-19T11:06:20;26.30;70.90
3630;DHT22;1831;53.626;10.012;2022-08-19T11:08:48;26.50;70.40
3630;DHT22;1831;53.626;10.012;2022-08-19T11:11:15;26.40;70.30
3630;DHT22;1831;53.626;10.012;2022-08-19T11:13:42;26.20;70.70
3630;DHT22;1831;53.626;10.012;2022-08-19T11:16:16;26.30;70.90
3630;DHT22;1831;53.626;10.012;2022-08-19T11:18:45;26.40;70.50
3630;DHT22;1831;53.626;10.012;2022-08-19T11:21:13;26.50;70.30
3630;DHT22;1831;53.626;10.012;2022-08-19T11:23:42;26.60;69.90
3630;DHT22;1831;53.626;10.012;2022-08-19T11:26:11;26.70;69.50
3630;DHT22;1831;53.626;10.012;2022-08-19T11:28:38;26.80;69.50
3630;DHT22;1831;53.626;10.012;2022-08-19T11:31:09;26.80;69.40
3630;DHT22;1831;53.626;10.012;2022-08-19T11:33:37;26.90;69.10
3630;DHT22;1831;53.626;10.012;2022-08-19T11:36:04;27.00;68.70
3630;DHT22;1831;53.626;10.012;2022-08-19T11:38:31;27.00;68.50
3630;DHT22;1831;53.626;10.012;2022-08-19T11:40:59;27.10;68.30
3630;DHT22;1831;53.626;10.012;2022-08-19T11:43:28;27.20;68.00
3630;DHT22;1831;53.626;10.012;2022-08-19T11:45:56;27.20;68.10
3630;DHT22;1831;53.626;10.012;2022-08-19T11:48:24;27.20;68.10
3630;DHT22;1831;53.626;10.012;2022-08-19T11:50:52;27.20;67.80
3630;DHT22;1831;53.626;10.012;2022-08-19T11:53:21;27.20;68.50
3630;DHT22;1831;53.626;10.012;2022-08-19T11:55:48;27.20;67.90
3630;DHT22;1831;53.626;10.012;2022-08-19T11:58:17;27.20;68.10
3630;DHT22;1831;53.626;10.012;2022-08-19T12:00:45;27.30;68.00
3630;DHT22;1831;53.626;10.012;2022-08-19T12:03:13;27.50;67.60
3630;DHT22;1831;53.626;10.012;2022-08-19T12:05:41;27.50;67.30
3630;DHT22;1831;53.626;10.012;2022-08-19T12:08:08;27.60;66.80
3630;DHT22;1831;53.626;10.012;2022-08-19T12:10:35;27.60;66.80
3630;DHT22;1831;53.626;10.012;2022-08-19T12:13:02;27.60;66.90
3630;DHT22;1831;53.626;10.012;2022-08-19T12:15:29;27.50;67.10
3630;DHT22;1831;53.626;10.012;2022-08-19T12:17:57;27.40;67.10
3630;DHT22;1831;53.626;10.012;2022-08-19T12:20:24;27.20;67.80
3630;DHT22;1831;53.626;10.012;2022-08-19T12:22:52;27.00;68.40
3630;DHT22;1831;53.626;10.012;2022-08-19T12:25:19;27.10;68.40
3630;DHT22;1831;53.626;10.012;2022-08-19T12:27:46;27.10;68.30
3630;DHT22;1831;53.626;10.012;2022-08-19T12:30:14;27.20;67.90
3630;DHT22;1831;53.626;10.012;2022-08-19T12:32:41;27.30;67.90
3630;DHT22;1831;53.626;10.012;2022-08-19T12:35:09;27.40;67.80
3630;DHT22;1831;53.626;10.012;2022-08-19T12:37:37;27.50;67.40
3630;DHT22;1831;53.626;10.012;2022-08-19T12:40:05;27.70;67.10
3630;DHT22;1831;53.626;10.012;2022-08-19T12:42:32;27.80;66.60
3630;DHT22;1831;53.626;10.012;2022-08-19T12:45:00;27.80;66.50
3630;DHT22;1831;53.626;10.012;2022-08-19T12:47:27;27.90;66.50
3630;DHT22;1831;53.626;10.012;2022-08-19T12:49:53;28.10;66.10
3630;DHT22;1831;53.626;10.012;2022-08-19T12:52:24;28.20;65.50
3630;DHT22;1831;53.626;10.012;2022-08-19T12:54:54;28.30;65.40
3630;DHT22;1831;53.626;10.012;2022-08-19T12:57:22;28.30;65.30
3630;DHT22;1831;53.626;10.012;2022-08-19T12:59:52;28.40;64.90
3630;DHT22;1831;53.626;10.012;2022-08-19T13:02:20;28.40;64.80
3630;DHT22;1831;53.626;10.012;2022-08-19T13:04:48;28.50;64.60
3630;DHT22;1831;53.626;10.012;2022-08-19T13:07:14;28.50;64.40
3630;DHT22;1831;53.626;10.012;2022-08-19T13:09:43;28.50;64.10
3630;DHT22;1831;53.626;10.012;2022-08-19T13:12:10;28.50;64.10
3630;DHT22;1831;53.626;10.012;2022-08-19T13:14:38;28.40;64.10
3630;DHT22;1831;53.626;10.012;2022-08-19T13:17:06;28.40;64.40
3630;DHT22;1831;53.626;10.012;2022-08-19T13:19:36;28.30;64.60
3630;DHT22;1831;53.626;10.012;2022-08-19T13:22:03;28.20;65.10
3630;DHT22;1831;53.626;10.012;2022-08-19T13:24:30;28.10;65.10
3630;DHT22;1831;53.626;10.012;2022-08-19T13:27:00;28.20;65.20
3630;DHT22;1831;53.626;10.012;2022-08-19T13:29:27;28.10;64.90
3630;DHT22;1831;53.626;10.012;2022-08-19T13:32:11;28.20;65.00
3630;DHT22;1831;53.626;10.012;2022-08-19T13:34:56;28.20;64.80
3630;DHT22;1831;53.626;10.012;2022-08-19T13:37:22;28.30;64.70
3630;DHT22;1831;53.626;10.012;2022-08-19T13:40:04;28.20;64.70
3630;DHT22;1831;53.626;10.012;2022-08-19T13:42:33;28.10;64.60
3630;DHT22;1831;53.626;10.012;2022-08-19T13:45:00;28.20;64.30
3630;DHT22;1831;53.626;10.012;2022-08-19T13:47:27;28.20;64.00
3630;DHT22;1831;53.626;10.012;2022-08-19T13:49:54;28.20;63.90
3630;DHT22;1831;53.626;10.012;2022-08-19T13:52:21;28.20;63.90
3630;DHT22;1831;53.626;10.012;2022-08-19T13:54:47;28.20;64.00
3630;DHT22;1831;53.626;10.012;2022-08-19T13:57:14;28.30;64.00
3630;DHT22;1831;53.626;10.012;2022-08-19T13:59:43;28.30;64.00
3630;DHT22;1831;53.626;10.012;2022-08-19T14:02:10;28.30;64.00
3630;DHT22;1831;53.626;10.012;2022-08-19T14:04:37;28.10;63.80
3630;DHT22;1831;53.626;10.012;2022-08-19T14:07:04;28.10;63.70
3630;DHT22;1831;53.626;10.012;2022-08-19T14:09:31;28.10;63.50
3630;DHT22;1831;53.626;10.012;2022-08-19T14:11:58;28.10;63.50
3630;DHT22;1831;53.626;10.012;2022-08-19T14:14:25;28.10;63.30
3630;DHT22;1831;53.626;10.012;2022-08-19T14:16:53;28.10;63.20
3630;DHT22;1831;53.626;10.012;2022-08-19T14:19:20;28.10;63.60
3630;DHT22;1831;53.626;10.012;2022-08-19T14:21:47;28.00;64.60
3630;DHT22;1831;53.626;10.012;2022-08-19T14:24:14;27.90;65.00
3630;DHT22;1831;53.626;10.012;2022-08-19T14:26:41;27.80;65.50
3630;DHT22;1831;53.626;10.012;2022-08-19T14:29:08;27.80;65.20
3630;DHT22;1831;53.626;10.012;2022-08-19T14:31:35;27.90;65.10
3630;DHT22;1831;53.626;10.012;2022-08-19T14:34:03;27.80;65.30
3630;DHT22;1831;53.626;10.012;2022-08-19T14:36:30;27.80;65.10
3630;DHT22;1831;53.626;10.012;2022-08-19T14:38:59;28.00;64.80
3630;DHT22;1831;53.626;10.012;2022-08-19T14:41:27;28.00;64.70
3630;DHT22;1831;53.626;10.012;2022-08-19T14:43:56;28.00;64.40
3630;DHT22;1831;53.626;10.012;2022-08-19T14:46:26;28.00;64.10
3630;DHT22;1831;53.626;10.012;2022-08-19T14:48:55;28.10;64.00
3630;DHT22;1831;53.626;10.012;2022-08-19T14:51:25;28.10;64.00
3630;DHT22;1831;53.626;10.012;2022-08-19T14:53:53;28.10;63.80
3630;DHT22;1831;53.626;10.012;2022-08-19T14:56:23;28.00;63.80
3630;DHT22;1831;53.626;10.012;2022-08-19T14:58:50;27.90;63.60
3630;DHT22;1831;53.626;10.012;2022-08-19T15:01:18;28.00;63.50
3630;DHT22;1831;53.626;10.012;2022-08-19T15:03:47;28.10;63.60
3630;DHT22;1831;53.626;10.012;2022-08-19T15:06:15;28.10;63.10
3630;DHT22;1831;53.626;10.012;2022-08-19T15:08:43;28.20;63.00
3630;DHT22;1831;53.626;10.012;2022-08-19T15:11:13;28.20;63.10
3630;DHT22;1831;53.626;10.012;2022-08-19T15:13:42;28.20;63.00
3630;DHT22;1831;53.626;10.012;2022-08-19T15:16:09;28.20;63.80
3630;DHT22;1831;53.626;10.012;2022-08-19T15:18:36;28.20;63.00
3630;DHT22;1831;53.626;10.012;2022-08-19T15:21:04;28.20;63.20
3630;DHT22;1831;53.626;10.012;2022-08-19T15:23:31;28.20;63.10
3630;DHT22;1831;53.626;10.012;2022-08-19T15:25:59;28.20;62.90
3630;DHT22;1831;53.626;10.012;2022-08-19T15:28:26;28.10;63.10
3630;DHT22;1831;53.626;10.012;2022-08-19T15:30:53;28.10;63.10
3630;DHT22;1831;53.626;10.012;2022-08-19T15:33:20;28.20;62.90
3630;DHT22;1831;53.626;10.012;2022-08-19T15:35:49;28.40;62.90
3630;DHT22;1831;53.626;10.012;2022-08-19T15:38:17;28.60;62.20
3630;DHT22;1831;53.626;10.012;2022-08-19T15:40:47;28.70;62.00
3630;DHT22;1831;53.626;10.012;2022-08-19T15:43:17;28.70;61.40
3630;DHT22;1831;53.626;10.012;2022-08-19T15:45:45;28.90;61.30
3630;DHT22;1831;53.626;10.012;2022-08-19T15:48:12;28.90;60.20
3630;DHT22;1831;53.626;10.012;2022-08-19T15:50:39;28.90;60.00
3630;DHT22;1831;53.626;10.012;2022-08-19T15:53:08;29.00;60.00
3630;DHT22;1831;53.626;10.012;2022-08-19T15:55:40;29.00;59.60
3630;DHT22;1831;53.626;10.012;2022-08-19T15:58:09;29.00;59.60